sensor_id;sensor_type;location;lat;lon;timestamp;temperature;humidity
41678;DHT22;27364;49.026;8.712;2023-09-30T00:00:58;17.90;99.90
41678;DHT22;27364;49.026;8.712;2023-09-30T00:03:24;17.80;99.90
41678;DHT22;27364;49.026;8.712;2023-09-30T00:05:50;17.80;99.90
41678;DHT22;27364;49.026;8.712;2023-09-30T00:08:15;17.80;99.90
41678;DHT22;27364;49.026;8.712;2023-09-30T00:10:41;17.80;99.90
41678;DHT22;27364;49.026;8.712;2023-09-30T00:13:06;17.70;99.90
41678;DHT22;27364;49.026;8.712;2023-09-30T00:15:34;17.70;99.90
41678;DHT22;27364;49.026;8.712;2023-09-30T00:18:01;17.70;99.90
41678;DHT22;27364;49.026;8.712;2023-09-30T00:20:27;17.60;99.90
41678;DHT22;27364;49.026;8.712;2023-09-30T00:22:53;17.60;99.90
41678;DHT22;27364;49.026;8.712;2023-09-30T00:25:19;17.60;99.90
41678;DHT22;27364;49.026;8.712;2023-09-30T00:27:46;17.50;99.90
41678;DHT22;27364;49.026;8.712;2023-09-30T00:30:12;17.50;99.90
41678;DHT22;27364;49.026;8.712;2023-09-30T00:32:38;17.50;99.90
41678;DHT22;27364;49.026;8.712;2023-09-30T00:35:05;17.40;99.90
41678;DHT22;27364;49.026;8.712;2023-09-30T00:37:37;17.40;99.90
41678;DHT22;27364;49.026;8.712;2023-09-30T00:40:03;17.30;99.90
41678;DHT22;27364;49.026;8.712;2023-09-30T00:42:29;17.30;99.90
41678;DHT22;27364;49.026;8.712;2023-09-30T00:44:55;17.30;99.90
41678;DHT22;27364;49.026;8.712;2023-09-30T00:47:20;17.20;99.90
41678;DHT22;27364;49.026;8.712;2023-09-30T00:49:46;17.20;99.90
41678;DHT22;27364;49.026;8.712;2023-09-30T00:52:12;17.20;99.90
41678;DHT22;27364;49.026;8.712;2023-09-30T00:54:38;17.10;99.90
41678;DHT22;27364;49.026;8.712;2023-09-30T00:57:05;17.00;99.90
41678;DHT22;27364;49.026;8.712;2023-09-30T00:59:31;16.80;99.90
41678;DHT22;27364;49.026;8.712;2023-09-30T01:01:58;16.80;99.90
41678;DHT22;27364;49.026;8.712;2023-09-30T01:04:27;16.80;99.90
41678;DHT22;27364;49.026;8.712;2023-09-30T01:06:53;16.80;99.90
41678;DHT22;27364;49.026;8.712;2023-09-30T01:09:19;16.70;99.90
41678;DHT22;27364;49.026;8.712;2023-09-30T01:11:45;16.60;99.90
41678;DHT22;27364;49.026;8.712;2023-09-30T01:14:40;16.60;99.90
41678;DHT22;27364;49.026;8.712;2023-09-30T01:17:08;16.60;99.90
41678;DHT22;27364;49.026;8.712;2023-09-30T01:19:39;16.60;99.90
41678;DHT22;27364;49.026;8.712;2023-09-30T01:22:04;16.50;99.90
41678;DHT22;27364;49.026;8.712;2023-09-30T01:24:30;16.50;99.90
41678;DHT22;27364;49.026;8.712;2023-09-30T01:26:56;16.50;99.90
41678;DHT22;27364;49.026;8.712;2023-09-30T01:29:22;16.60;99.90
41678;DHT22;27364;49.026;8.712;2023-09-30T01:31:50;16.60;99.90
41678;DHT22;27364;49.026;8.712;2023-09-30T01:34:15;16.50;99.90
41678;DHT22;27364;49.026;8.712;2023-09-30T01:36:43;16.40;99.90
41678;DHT22;27364;49.026;8.712;2023-09-30T01:39:09;16.30;99.90
41678;DHT22;27364;49.026;8.712;2023-09-30T01:41:36;16.30;99.90
41678;DHT22;27364;49.026;8.712;2023-09-30T01:44:02;16.30;99.90
41678;DHT22;27364;49.026;8.712;2023-09-30T01:46:27;16.30;99.90
41678;DHT22;27364;49.026;8.712;2023-09-30T01:48:53;16.30;99.90
41678;DHT22;27364;49.026;8.712;2023-09-30T01:51:18;16.20;99.90
41678;DHT22;27364;49.026;8.712;2023-09-30T01:53:44;16.20;99.90
41678;DHT22;27364;49.026;8.712;2023-09-30T01:56:10;16.20;99.90
41678;DHT22;27364;49.026;8.712;2023-09-30T01:58:35;16.20;99.90
41678;DHT22;27364;49.026;8.712;2023-09-30T02:01:02;16.20;99.90
41678;DHT22;27364;49.026;8.712;2023-09-30T02:03:28;16.20;99.90
41678;DHT22;27364;49.026;8.712;2023-09-30T02:05:55;16.20;99.90
41678;DHT22;27364;49.026;8.712;2023-09-30T02:08:20;16.20;99.90
41678;DHT22;27364;49.026;8.712;2023-09-30T02:10:46;16.20;99.90
41678;DHT22;27364;49.026;8.712;2023-09-30T02:13:12;16.20;99.90
41678;DHT22;27364;49.026;8.712;2023-09-30T02:15:40;16.20;99.90
41678;DHT22;27364;49.026;8.712;2023-09-30T02:18:06;16.10;99.90
41678;DHT22;27364;49.026;8.712;2023-09-30T02:20:32;16.20;99.90
41678;DHT22;27364;49.026;8.712;2023-09-30T02:22:57;16.20;99.90
41678;DHT22;27364;49.026;8.712;2023-09-30T02:25:24;16.10;99.90
41678;DHT22;27364;49.026;8.712;2023-09-30T02:27:50;16.20;99.90
41678;DHT22;27364;49.026;8.712;2023-09-30T02:30:18;16.10;99.90
41678;DHT22;27364;49.026;8.712;2023-09-30T02:32:44;16.20;99.90
41678;DHT22;27364;49.026;8.712;2023-09-30T02:35:11;16.20;99.90
41678;DHT22;27364;49.026;8.712;2023-09-30T02:37:37;16.20;99.90
41678;DHT22;27364;49.026;8.712;2023-09-30T02:40:04;16.20;99.90
41678;DHT22;27364;49.026;8.712;2023-09-30T02:42:35;16.10;99.90
41678;DHT22;27364;49.026;8.712;2023-09-30T02:45:02;16.10;99.90
41678;DHT22;27364;49.026;8.712;2023-09-30T02:47:28;16.20;99.90
41678;DHT22;27364;49.026;8.712;2023-09-30T02:49:56;16.20;99.90
41678;DHT22;27364;49.026;8.712;2023-09-30T02:52:22;16.30;99.90
41678;DHT22;27364;49.026;8.712;2023-09-30T02:54:47;16.40;99.90
41678;DHT22;27364;49.026;8.712;2023-09-30T02:57:14;16.40;99.90
41678;DHT22;27364;49.026;8.712;2023-09-30T02:59:40;16.40;99.90
41678;DHT22;27364;49.026;8.712;2023-09-30T03:02:06;16.40;99.90
41678;DHT22;27364;49.026;8.712;2023-09-30T03:04:32;16.40;99.90
41678;DHT22;27364;49.026;8.712;2023-09-30T03:06:58;16.30;99.90
41678;DHT22;27364;49.026;8.712;2023-09-30T03:09:23;16.30;99.90
41678;DHT22;27364;49.026;8.712;2023-09-30T03:11:49;16.30;99.90
41678;DHT22;27364;49.026;8.712;2023-09-30T03:14:15;16.30;99.90
41678;DHT22;27364;49.026;8.712;2023-09-30T03:16:40;16.30;99.90
41678;DHT22;27364;49.026;8.712;2023-09-30T03:19:07;16.30;99.90
41678;DHT22;27364;49.026;8.712;2023-09-30T03:21:36;16.20;99.90
41678;DHT22;27364;49.026;8.712;2023-09-30T03:24:05;16.20;99.90
41678;DHT22;27364;49.026;8.712;2023-09-30T03:26:33;16.20;99.90
41678;DHT22;27364;49.026;8.712;2023-09-30T03:28:59;16.10;99.90
41678;DHT22;27364;49.026;8.712;2023-09-30T03:31:25;16.10;99.90
41678;DHT22;27364;49.026;8.712;2023-09-30T03:33:50;16.10;99.90
41678;DHT22;27364;49.026;8.712;2023-09-30T03:36:20;16.00;99.90
41678;DHT22;27364;49.026;8.712;2023-09-30T03:38:45;15.90;99.90
41678;DHT22;27364;49.026;8.712;2023-09-30T03:41:11;15.80;99.90
41678;DHT22;27364;49.026;8.712;2023-09-30T03:43:38;15.80;99.90
41678;DHT22;27364;49.026;8.712;2023-09-30T03:46:09;15.90;99.90
41678;DHT22;27364;49.026;8.712;2023-09-30T03:48:35;15.80;99.90
41678;DHT22;27364;49.026;8.712;2023-09-30T03:51:11;15.80;99.90
41678;DHT22;27364;49.026;8.712;2023-09-30T03:53:49;15.70;99.90
41678;DHT22;27364;49.026;8.712;2023-09-30T03:56:14;15.70;99.90
41678;DHT22;27364;49.026;8.712;2023-09-30T03:58:42;15.70;99.90
41678;DHT22;27364;49.026;8.712;2023-09-30T04:01:08;15.70;99.90
41678;DHT22;27364;49.026;8.712;2023-09-30T04:03:37;15.70;99.90
41678;DHT22;27364;49.026;8.712;2023-09-30T04:06:05;15.70;99.90
41678;DHT22;27364;49.026;8.712;2023-09-30T04:08:30;15.70;99.90
41678;DHT22;27364;49.026;8.712;2023-09-30T04:10:59;15.50;99.90
41678;DHT22;27364;49.026;8.712;2023-09-30T04:13:24;15.60;99.90
41678;DHT22;27364;49.026;8.712;2023-09-30T04:15:50;15.60;99.90
41678;DHT22;27364;49.026;8.712;2023-09-30T04:18:16;15.60;99.90
41678;DHT22;27364;49.026;8.712;2023-09-30T04:20:41;15.60;99.90
41678;DHT22;27364;49.026;8.712;2023-09-30T04:23:07;15.50;99.90
41678;DHT22;27364;49.026;8.712;2023-09-30T04:25:35;15.50;99.90
41678;DHT22;27364;49.026;8.712;2023-09-30T04:28:01;15.50;99.90
41678;DHT22;27364;49.026;8.712;2023-09-30T04:30:27;15.40;99.90
41678;DHT22;27364;49.026;8.712;2023-09-30T04:32:54;15.50;99.90
41678;DHT22;27364;49.026;8.712;2023-09-30T04:35:20;15.40;99.90
41678;DHT22;27364;49.026;8.712;2023-09-30T04:37:47;15.40;99.90
41678;DHT22;27364;49.026;8.712;2023-09-30T04:40:12;15.20;99.90
41678;DHT22;27364;49.026;8.712;2023-09-30T04:42:43;15.10;99.90
41678;DHT22;27364;49.026;8.712;2023-09-30T04:45:10;15.10;99.90
41678;DHT22;27364;49.026;8.712;2023-09-30T04:47:36;15.10;99.90
41678;DHT22;27364;49.026;8.712;2023-09-30T04:50:03;15.10;99.90
41678;DHT22;27364;49.026;8.712;2023-09-30T04:52:32;15.00;99.90
41678;DHT22;27364;49.026;8.712;2023-09-30T04:54:58;15.00;99.90
41678;DHT22;27364;49.026;8.712;2023-09-30T04:57:25;15.00;99.90
41678;DHT22;27364;49.026;8.712;2023-09-30T04:59:51;15.00;99.90
41678;DHT22;27364;49.026;8.712;2023-09-30T05:02:16;14.90;99.90
41678;DHT22;27364;49.026;8.712;2023-09-30T05:04:42;14.80;99.90
41678;DHT22;27364;49.026;8.712;2023-09-30T05:07:08;14.80;99.90
41678;DHT22;27364;49.026;8.712;2023-09-30T05:09:33;14.80;99.90
41678;DHT22;27364;49.026;8.712;2023-09-30T05:11:59;14.70;99.90
41678;DHT22;27364;49.026;8.712;2023-09-30T05:14:24;14.70;99.90
41678;DHT22;27364;49.026;8.712;2023-09-30T05:16:50;14.70;99.90
41678;DHT22;27364;49.026;8.712;2023-09-30T05:19:15;14.70;99.90
41678;DHT22;27364;49.026;8.712;2023-09-30T05:21:41;14.70;99.90
41678;DHT22;27364;49.026;8.712;2023-09-30T05:24:08;14.70;99.90
41678;DHT22;27364;49.026;8.712;2023-09-30T05:26:34;14.70;99.90
41678;DHT22;27364;49.026;8.712;2023-09-30T05:28:59;14.70;99.90
41678;DHT22;27364;49.026;8.712;2023-09-30T05:31:25;14.70;99.90
41678;DHT22;27364;49.026;8.712;2023-09-30T05:33:50;14.70;99.90
41678;DHT22;27364;49.026;8.712;2023-09-30T05:36:16;14.60;99.90
41678;DHT22;27364;49.026;8.712;2023-09-30T05:38:41;14.60;99.90
41678;DHT22;27364;49.026;8.712;2023-09-30T05:41:07;14.50;99.90
41678;DHT22;27364;49.026;8.712;2023-09-30T05:43:33;14.50;99.90
41678;DHT22;27364;49.026;8.712;2023-09-30T05:45:59;14.50;99.90
41678;DHT22;27364;49.026;8.712;2023-09-30T05:48:27;14.50;99.90
41678;DHT22;27364;49.026;8.712;2023-09-30T05:50:52;14.40;99.90
41678;DHT22;27364;49.026;8.712;2023-09-30T05:53:18;14.40;99.90
41678;DHT22;27364;49.026;8.712;2023-09-30T05:55:43;14.40;99.90
41678;DHT22;27364;49.026;8.712;2023-09-30T05:58:12;14.30;99.90
41678;DHT22;27364;49.026;8.712;2023-09-30T06:00:39;14.30;99.90
41678;DHT22;27364;49.026;8.712;2023-09-30T06:03:06;14.30;99.90
41678;DHT22;27364;49.026;8.712;2023-09-30T06:05:31;14.30;99.90
41678;DHT22;27364;49.026;8.712;2023-09-30T06:08:03;14.30;99.90
41678;DHT22;27364;49.026;8.712;2023-09-30T06:10:29;14.40;99.90
41678;DHT22;27364;49.026;8.712;2023-09-30T06:12:56;14.30;99.90
41678;DHT22;27364;49.026;8.712;2023-09-30T06:15:23;14.30;99.90
41678;DHT22;27364;49.026;8.712;2023-09-30T06:17:52;14.30;99.90
41678;DHT22;27364;49.026;8.712;2023-09-30T06:20:20;14.30;99.90
41678;DHT22;27364;49.026;8.712;2023-09-30T06:22:48;14.30;99.90
41678;DHT22;27364;49.026;8.712;2023-09-30T06:25:20;14.20;99.90
41678;DHT22;27364;49.026;8.712;2023-09-30T06:27:47;14.20;99.90
41678;DHT22;27364;49.026;8.712;2023-09-30T06:30:14;14.10;99.90
41678;DHT22;27364;49.026;8.712;2023-09-30T06:32:41;14.20;99.90
41678;DHT22;27364;49.026;8.712;2023-09-30T06:35:08;14.20;99.90
41678;DHT22;27364;49.026;8.712;2023-09-30T06:37:38;14.20;99.90
41678;DHT22;27364;49.026;8.712;2023-09-30T06:40:10;14.30;99.90
41678;DHT22;27364;49.026;8.712;2023-09-30T06:42:38;14.20;99.90
41678;DHT22;27364;49.026;8.712;2023-09-30T06:45:06;14.30;99.90
41678;DHT22;27364;49.026;8.712;2023-09-30T06:47:39;14.30;99.90
41678;DHT22;27364;49.026;8.712;2023-09-30T06:50:12;14.30;99.90
41678;DHT22;27364;49.026;8.712;2023-09-30T06:52:42;14.40;99.90
41678;DHT22;27364;49.026;8.712;2023-09-30T06:55:08;14.40;99.90
41678;DHT22;27364;49.026;8.712;2023-09-30T06:57:35;14.50;99.90
41678;DHT22;27364;49.026;8.712;2023-09-30T07:00:10;14.50;99.90
41678;DHT22;27364;49.026;8.712;2023-09-30T07:02:37;14.50;99.90
41678;DHT22;27364;49.026;8.712;2023-09-30T07:05:14;14.60;99.90
41678;DHT22;27364;49.026;8.712;2023-09-30T07:07:40;14.60;99.90
41678;DHT22;27364;49.026;8.712;2023-09-30T07:10:09;14.70;99.90
41678;DHT22;27364;49.026;8.712;2023-09-30T07:12:35;14.60;99.90
41678;DHT22;27364;49.026;8.712;2023-09-30T07:15:04;14.70;99.90
41678;DHT22;27364;49.026;8.712;2023-09-30T07:17:30;14.70;99.90
41678;DHT22;27364;49.026;8.712;2023-09-30T07:19:56;14.80;99.90
41678;DHT22;27364;49.026;8.712;2023-09-30T07:22:22;14.90;99.90
41678;DHT22;27364;49.026;8.712;2023-09-30T07:24:48;15.00;99.90
41678;DHT22;27364;49.026;8.712;2023-09-30T07:27:13;15.00;99.90
41678;DHT22;27364;49.026;8.712;2023-09-30T07:29:39;15.00;99.90
41678;DHT22;27364;49.026;8.712;2023-09-30T07:32:06;15.10;99.90
41678;DHT22;27364;49.026;8.712;2023-09-30T07:34:32;15.20;99.90
41678;DHT22;27364;49.026;8.712;2023-09-30T07:36:58;15.30;99.90
41678;DHT22;27364;49.026;8.712;2023-09-30T07:39:23;15.40;99.90
41678;DHT22;27364;49.026;8.712;2023-09-30T07:41:49;15.50;99.90
41678;DHT22;27364;49.026;8.712;2023-09-30T07:44:14;15.50;99.90
41678;DHT22;27364;49.026;8.712;2023-09-30T07:46:40;15.60;99.90
41678;DHT22;27364;49.026;8.712;2023-09-30T07:49:09;15.60;99.90
41678;DHT22;27364;49.026;8.712;2023-09-30T07:51:35;15.70;99.90
41678;DHT22;27364;49.026;8.712;2023-09-30T07:54:01;15.80;99.90
41678;DHT22;27364;49.026;8.712;2023-09-30T07:56:26;15.80;99.90
41678;DHT22;27364;49.026;8.712;2023-09-30T07:58:52;15.90;99.90
41678;DHT22;27364;49.026;8.712;2023-09-30T08:01:17;16.00;99.90
41678;DHT22;27364;49.026;8.712;2023-09-30T08:03:43;16.10;99.90
41678;DHT22;27364;49.026;8.712;2023-09-30T08:06:09;16.20;99.90
41678;DHT22;27364;49.026;8.712;2023-09-30T08:08:35;16.20;99.90
41678;DHT22;27364;49.026;8.712;2023-09-30T08:11:01;16.30;99.90
41678;DHT22;27364;49.026;8.712;2023-09-30T08:13:26;16.40;99.90
41678;DHT22;27364;49.026;8.712;2023-09-30T08:15:54;16.40;99.90
41678;DHT22;27364;49.026;8.712;2023-09-30T08:18:20;16.40;99.90
41678;DHT22;27364;49.026;8.712;2023-09-30T08:20:45;16.50;99.90
41678;DHT22;27364;49.026;8.712;2023-09-30T08:23:11;16.50;99.90
41678;DHT22;27364;49.026;8.712;2023-09-30T08:25:39;16.60;99.90
41678;DHT22;27364;49.026;8.712;2023-09-30T08:28:05;16.70;99.90
41678;DHT22;27364;49.026;8.712;2023-09-30T08:30:32;16.70;99.90
41678;DHT22;27364;49.026;8.712;2023-09-30T08:32:58;16.80;99.90
41678;DHT22;27364;49.026;8.712;2023-09-30T08:35:24;16.80;99.90
41678;DHT22;27364;49.026;8.712;2023-09-30T08:37:50;16.80;99.90
41678;DHT22;27364;49.026;8.712;2023-09-30T08:40:20;16.80;99.90
41678;DHT22;27364;49.026;8.712;2023-09-30T08:42:50;16.90;99.90
41678;DHT22;27364;49.026;8.712;2023-09-30T08:45:17;16.90;99.90
41678;DHT22;27364;49.026;8.712;2023-09-30T08:47:43;17.00;99.90
41678;DHT22;27364;49.026;8.712;2023-09-30T08:50:09;17.10;99.90
41678;DHT22;27364;49.026;8.712;2023-09-30T08:52:37;17.30;99.90
41678;DHT22;27364;49.026;8.712;2023-09-30T08:55:03;17.40;99.90
41678;DHT22;27364;49.026;8.712;2023-09-30T08:57:30;17.40;99.90
41678;DHT22;27364;49.026;8.712;2023-09-30T08:59:57;17.60;99.90
41678;DHT22;27364;49.026;8.712;2023-09-30T09:02:23;17.60;99.90
41678;DHT22;27364;49.026;8.712;2023-09-30T09:04:49;17.70;99.90
41678;DHT22;27364;49.026;8.712;2023-09-30T09:07:14;17.80;99.90
41678;DHT22;27364;49.026;8.712;2023-09-30T09:09:40;17.90;99.90
41678;DHT22;27364;49.026;8.712;2023-09-30T09:12:06;18.00;99.90
41678;DHT22;27364;49.026;8.712;2023-09-30T09:14:38;18.00;99.90
41678;DHT22;27364;49.026;8.712;2023-09-30T09:17:07;18.10;99.90
41678;DHT22;27364;49.026;8.712;2023-09-30T09:19:34;18.30;99.90
41678;DHT22;27364;49.026;8.712;2023-09-30T09:22:00;18.30;99.90
41678;DHT22;27364;49.026;8.712;2023-09-30T09:24:34;18.40;99.90
41678;DHT22;27364;49.026;8.712;2023-09-30T09:27:05;18.50;99.90
41678;DHT22;27364;49.026;8.712;2023-09-30T09:29:33;18.60;99.90
41678;DHT22;27364;49.026;8.712;2023-09-30T09:32:12;18.60;99.90
41678;DHT22;27364;49.026;8.712;2023-09-30T09:34:43;18.70;99.90
41678;DHT22;27364;49.026;8.712;2023-09-30T09:37:21;18.70;99.90
41678;DHT22;27364;49.026;8.712;2023-09-30T09:39:55;18.90;99.90
41678;DHT22;27364;49.026;8.712;2023-09-30T09:42:31;19.00;99.90
41678;DHT22;27364;49.026;8.712;2023-09-30T09:45:02;19.10;99.90
41678;DHT22;27364;49.026;8.712;2023-09-30T09:47:29;19.20;99.90
41678;DHT22;27364;49.026;8.712;2023-09-30T09:49:57;19.30;99.90
41678;DHT22;27364;49.026;8.712;2023-09-30T09:52:23;19.40;99.90
41678;DHT22;27364;49.026;8.712;2023-09-30T09:54:50;19.30;99.90
41678;DHT22;27364;49.026;8.712;2023-09-30T09:57:17;19.30;99.90
41678;DHT22;27364;49.026;8.712;2023-09-30T09:59:44;19.40;99.90
41678;DHT22;27364;49.026;8.712;2023-09-30T10:02:13;19.50;99.90
41678;DHT22;27364;49.026;8.712;2023-09-30T10:04:46;19.50;99.90
41678;DHT22;27364;49.026;8.712;2023-09-30T10:07:16;19.60;99.90
41678;DHT22;27364;49.026;8.712;2023-09-30T10:09:47;19.70;99.90
41678;DHT22;27364;49.026;8.712;2023-09-30T10:12:14;19.80;99.90
41678;DHT22;27364;49.026;8.712;2023-09-30T10:14:40;19.80;99.90
41678;DHT22;27364;49.026;8.712;2023-09-30T10:17:06;19.90;99.90
41678;DHT22;27364;49.026;8.712;2023-09-30T10:19:31;20.00;99.90
41678;DHT22;27364;49.026;8.712;2023-09-30T10:24:42;20.10;99.90
41678;DHT22;27364;49.026;8.712;2023-09-30T10:35:17;20.00;99.90
41678;DHT22;27364;49.026;8.712;2023-09-30T10:37:43;20.10;99.90
41678;DHT22;27364;49.026;8.712;2023-09-30T10:40:10;20.10;99.90
41678;DHT22;27364;49.026;8.712;2023-09-30T10:42:49;20.20;99.90
41678;DHT22;27364;49.026;8.712;2023-09-30T10:50:58;20.60;99.90
41678;DHT22;27364;49.026;8.712;2023-09-30T10:53:27;20.60;99.90
41678;DHT22;27364;49.026;8.712;2023-09-30T10:55:58;20.60;99.90
41678;DHT22;27364;49.026;8.712;2023-09-30T10:58:49;20.80;99.90
41678;DHT22;27364;49.026;8.712;2023-09-30T11:01:20;21.00;99.90
41678;DHT22;27364;49.026;8.712;2023-09-30T11:03:47;21.20;99.90
41678;DHT22;27364;49.026;8.712;2023-09-30T11:06:15;21.30;99.90
41678;DHT22;27364;49.026;8.712;2023-09-30T11:08:53;21.30;99.90
41678;DHT22;27364;49.026;8.712;2023-09-30T11:11:41;21.40;99.90
41678;DHT22;27364;49.026;8.712;2023-09-30T11:14:28;21.30;99.90
41678;DHT22;27364;49.026;8.712;2023-09-30T11:16:58;21.40;99.90
41678;DHT22;27364;49.026;8.712;2023-09-30T11:19:35;21.50;99.90
41678;DHT22;27364;49.026;8.712;2023-09-30T11:22:02;21.40;99.90
41678;DHT22;27364;49.026;8.712;2023-09-30T11:24:28;21.50;99.90
41678;DHT22;27364;49.026;8.712;2023-09-30T11:26:54;21.60;99.90
41678;DHT22;27364;49.026;8.712;2023-09-30T11:29:23;21.80;99.90
41678;DHT22;27364;49.026;8.712;2023-09-30T11:31:49;21.70;99.90
41678;DHT22;27364;49.026;8.712;2023-09-30T11:34:17;21.60;99.90
41678;DHT22;27364;49.026;8.712;2023-09-30T11:36:50;21.60;99.90
41678;DHT22;27364;49.026;8.712;2023-09-30T11:39:26;21.60;99.90
41678;DHT22;27364;49.026;8.712;2023-09-30T11:41:53;21.80;99.90
41678;DHT22;27364;49.026;8.712;2023-09-30T11:44:20;21.80;99.90
41678;DHT22;27364;49.026;8.712;2023-09-30T11:46:56;21.90;99.40
41678;DHT22;27364;49.026;8.712;2023-09-30T11:49:32;21.90;98.80
41678;DHT22;27364;49.026;8.712;2023-09-30T11:52:02;21.90;98.50
41678;DHT22;27364;49.026;8.712;2023-09-30T11:54:31;21.90;98.50
41678;DHT22;27364;49.026;8.712;2023-09-30T11:56:58;21.90;97.80
41678;DHT22;27364;49.026;8.712;2023-09-30T11:59:24;22.00;98.70
41678;DHT22;27364;49.026;8.712;2023-09-30T12:01:50;22.10;99.30
41678;DHT22;27364;49.026;8.712;2023-09-30T12:04:17;22.20;99.20
41678;DHT22;27364;49.026;8.712;2023-09-30T12:06:44;22.40;99.10
41678;DHT22;27364;49.026;8.712;2023-09-30T12:09:10;22.50;97.60
41678;DHT22;27364;49.026;8.712;2023-09-30T12:11:42;22.50;96.60
41678;DHT22;27364;49.026;8.712;2023-09-30T12:14:13;22.60;95.90
41678;DHT22;27364;49.026;8.712;2023-09-30T12:16:39;22.50;94.60
41678;DHT22;27364;49.026;8.712;2023-09-30T12:19:05;22.50;93.60
41678;DHT22;27364;49.026;8.712;2023-09-30T12:21:32;22.50;94.20
41678;DHT22;27364;49.026;8.712;2023-09-30T12:23:57;22.30;94.60
41678;DHT22;27364;49.026;8.712;2023-09-30T12:26:24;22.20;95.50
41678;DHT22;27364;49.026;8.712;2023-09-30T12:28:49;22.20;94.20
41678;DHT22;27364;49.026;8.712;2023-09-30T12:31:16;22.40;91.70
41678;DHT22;27364;49.026;8.712;2023-09-30T12:33:41;22.50;92.00
41678;DHT22;27364;49.026;8.712;2023-09-30T12:36:07;22.60;91.30
41678;DHT22;27364;49.026;8.712;2023-09-30T12:38:33;22.60;90.70
41678;DHT22;27364;49.026;8.712;2023-09-30T12:40:59;22.50;90.20
41678;DHT22;27364;49.026;8.712;2023-09-30T12:43:25;22.70;90.90
41678;DHT22;27364;49.026;8.712;2023-09-30T12:45:51;22.80;87.60
41678;DHT22;27364;49.026;8.712;2023-09-30T12:48:16;22.70;91.30
41678;DHT22;27364;49.026;8.712;2023-09-30T12:50:43;22.80;91.70
41678;DHT22;27364;49.026;8.712;2023-09-30T12:53:09;22.90;90.30
41678;DHT22;27364;49.026;8.712;2023-09-30T12:55:35;23.00;89.00
41678;DHT22;27364;49.026;8.712;2023-09-30T12:58:00;23.00;89.90
41678;DHT22;27364;49.026;8.712;2023-09-30T13:00:26;23.00;89.40
41678;DHT22;27364;49.026;8.712;2023-09-30T13:02:52;22.90;86.90
41678;DHT22;27364;49.026;8.712;2023-09-30T13:05:18;22.90;88.30
41678;DHT22;27364;49.026;8.712;2023-09-30T13:07:45;23.00;90.20
41678;DHT22;27364;49.026;8.712;2023-09-30T13:10:11;22.90;88.50
41678;DHT22;27364;49.026;8.712;2023-09-30T13:12:38;22.80;85.80
41678;DHT22;27364;49.026;8.712;2023-09-30T13:15:05;22.60;89.00
41678;DHT22;27364;49.026;8.712;2023-09-30T13:17:30;22.70;88.90
41678;DHT22;27364;49.026;8.712;2023-09-30T13:19:56;22.80;86.10
41678;DHT22;27364;49.026;8.712;2023-09-30T13:22:22;22.80;87.60
41678;DHT22;27364;49.026;8.712;2023-09-30T13:24:48;23.00;87.50
41678;DHT22;27364;49.026;8.712;2023-09-30T13:27:13;23.10;85.80
41678;DHT22;27364;49.026;8.712;2023-09-30T13:29:42;23.20;87.60
41678;DHT22;27364;49.026;8.712;2023-09-30T13:32:09;23.20;84.70
41678;DHT22;27364;49.026;8.712;2023-09-30T13:34:35;23.30;83.50
41678;DHT22;27364;49.026;8.712;2023-09-30T13:37:01;23.30;86.60
41678;DHT22;27364;49.026;8.712;2023-09-30T13:39:27;23.40;83.60
41678;DHT22;27364;49.026;8.712;2023-09-30T13:41:52;23.40;82.50
41678;DHT22;27364;49.026;8.712;2023-09-30T13:44:18;23.30;80.70
41678;DHT22;27364;49.026;8.712;2023-09-30T13:46:44;23.20;83.80
41678;DHT22;27364;49.026;8.712;2023-09-30T13:49:11;23.10;82.60
41678;DHT22;27364;49.026;8.712;2023-09-30T13:51:36;22.90;82.20
41678;DHT22;27364;49.026;8.712;2023-09-30T13:54:04;22.90;83.80
41678;DHT22;27364;49.026;8.712;2023-09-30T13:56:30;22.70;85.20
41678;DHT22;27364;49.026;8.712;2023-09-30T13:58:56;22.50;86.60
41678;DHT22;27364;49.026;8.712;2023-09-30T14:01:23;22.40;88.20
41678;DHT22;27364;49.026;8.712;2023-09-30T14:03:48;22.40;85.80
41678;DHT22;27364;49.026;8.712;2023-09-30T14:06:14;22.30;86.70
41678;DHT22;27364;49.026;8.712;2023-09-30T14:08:41;22.30;86.20
41678;DHT22;27364;49.026;8.712;2023-09-30T14:11:09;22.30;84.50
41678;DHT22;27364;49.026;8.712;2023-09-30T14:13:35;22.40;87.60
41678;DHT22;27364;49.026;8.712;2023-09-30T14:16:01;22.40;85.80
41678;DHT22;27364;49.026;8.712;2023-09-30T14:18:27;22.40;83.20
41678;DHT22;27364;49.026;8.712;2023-09-30T14:20:52;22.30;85.60
41678;DHT22;27364;49.026;8.712;2023-09-30T14:23:18;22.40;88.50
41678;DHT22;27364;49.026;8.712;2023-09-30T14:25:44;22.40;88.30
41678;DHT22;27364;49.026;8.712;2023-09-30T14:28:09;22.40;85.90
41678;DHT22;27364;49.026;8.712;2023-09-30T14:30:35;22.40;86.20
41678;DHT22;27364;49.026;8.712;2023-09-30T14:33:01;22.30;86.20
41678;DHT22;27364;49.026;8.712;2023-09-30T14:35:26;22.10;86.50
41678;DHT22;27364;49.026;8.712;2023-09-30T14:37:52;22.20;87.40
41678;DHT22;27364;49.026;8.712;2023-09-30T14:40:20;22.10;86.20
41678;DHT22;27364;49.026;8.712;2023-09-30T14:42:45;22.10;88.00
41678;DHT22;27364;49.026;8.712;2023-09-30T14:45:11;22.00;87.50
41678;DHT22;27364;49.026;8.712;2023-09-30T14:47:37;22.00;87.80
41678;DHT22;27364;49.026;8.712;2023-09-30T14:50:06;22.00;87.10
41678;DHT22;27364;49.026;8.712;2023-09-30T14:52:32;22.00;87.20
41678;DHT22;27364;49.026;8.712;2023-09-30T14:54:58;22.10;85.30
41678;DHT22;27364;49.026;8.712;2023-09-30T14:57:23;22.10;85.20
41678;DHT22;27364;49.026;8.712;2023-09-30T14:59:50;22.10;85.30
41678;DHT22;27364;49.026;8.712;2023-09-30T15:02:15;22.10;86.20
41678;DHT22;27364;49.026;8.712;2023-09-30T15:04:41;22.10;84.50
41678;DHT22;27364;49.026;8.712;2023-09-30T15:07:07;22.10;84.20
41678;DHT22;27364;49.026;8.712;2023-09-30T15:09:32;22.20;85.80
41678;DHT22;27364;49.026;8.712;2023-09-30T15:11:58;22.20;84.70
41678;DHT22;27364;49.026;8.712;2023-09-30T15:14:24;22.40;85.80
41678;DHT22;27364;49.026;8.712;2023-09-30T15:16:49;22.50;85.60
41678;DHT22;27364;49.026;8.712;2023-09-30T15:19:15;22.60;83.10
41678;DHT22;27364;49.026;8.712;2023-09-30T15:21:40;22.60;84.80
41678;DHT22;27364;49.026;8.712;2023-09-30T15:24:07;22.70;85.90
41678;DHT22;27364;49.026;8.712;2023-09-30T15:26:32;22.70;84.50
41678;DHT22;27364;49.026;8.712;2023-09-30T15:28:58;22.60;84.80
41678;DHT22;27364;49.026;8.712;2023-09-30T15:31:30;22.50;83.10
41678;DHT22;27364;49.026;8.712;2023-09-30T15:33:56;22.40;83.00
41678;DHT22;27364;49.026;8.712;2023-09-30T15:36:22;22.30;83.10
41678;DHT22;27364;49.026;8.712;2023-09-30T15:38:48;22.30;83.50
41678;DHT22;27364;49.026;8.712;2023-09-30T15:41:14;22.30;86.00
41678;DHT22;27364;49.026;8.712;2023-09-30T15:43:40;22.20;84.00
41678;DHT22;27364;49.026;8.712;2023-09-30T15:46:08;22.20;85.60